sensor_id;sensor_type;location;lat;lon;timestamp;P1;durP1;ratioP1;P2;durP2;ratioP2
57217;SDS011;43078;52.972;6.482;2023-03-03T00:01:01;30.33;;;18.98;;
57217;SDS011;43078;52.972;6.482;2023-03-03T00:03:27;30.10;;;19.55;;
57217;SDS011;43078;52.972;6.482;2023-03-03T00:05:52;32.85;;;19.60;;
57217;SDS011;43078;52.972;6.482;2023-03-03T00:08:19;29.83;;;18.90;;
57217;SDS011;43078;52.972;6.482;2023-03-03T00:10:45;30.23;;;17.77;;
57217;SDS011;43078;52.972;6.482;2023-03-03T00:13:15;31.13;;;18.58;;
57217;SDS011;43078;52.972;6.482;2023-03-03T00:15:42;28.77;;;18.45;;
57217;SDS011;43078;52.972;6.482;2023-03-03T00:18:23;29.48;;;18.65;;
57217;SDS011;43078;52.972;6.482;2023-03-03T00:20:53;31.60;;;17.85;;
57217;SDS011;43078;52.972;6.482;2023-03-03T00:25:49;29.13;;;17.55;;
57217;SDS011;43078;52.972;6.482;2023-03-03T00:30:51;29.08;;;18.08;;
57217;SDS011;43078;52.972;6.482;2023-03-03T00:35:53;30.30;;;17.42;;
57217;SDS011;43078;52.972;6.482;2023-03-03T00:38:38;29.02;;;16.63;;
57217;SDS011;43078;52.972;6.482;2023-03-03T00:41:09;28.95;;;17.38;;
57217;SDS011;43078;52.972;6.482;2023-03-03T00:43:49;28.23;;;16.75;;
57217;SDS011;43078;52.972;6.482;2023-03-03T00:46:16;27.42;;;17.02;;
57217;SDS011;43078;52.972;6.482;2023-03-03T00:48:44;27.23;;;17.10;;
57217;SDS011;43078;52.972;6.482;2023-03-03T00:53:52;28.70;;;17.08;;
57217;SDS011;43078;52.972;6.482;2023-03-03T00:56:18;26.48;;;17.00;;
57217;SDS011;43078;52.972;6.482;2023-03-03T00:58:44;27.23;;;16.38;;
57217;SDS011;43078;52.972;6.482;2023-03-03T01:01:12;27.92;;;17.63;;
57217;SDS011;43078;52.972;6.482;2023-03-03T01:03:38;27.55;;;16.88;;
57217;SDS011;43078;52.972;6.482;2023-03-03T01:06:03;26.17;;;16.05;;
57217;SDS011;43078;52.972;6.482;2023-03-03T01:08:29;28.70;;;17.33;;
57217;SDS011;43078;52.972;6.482;2023-03-03T01:10:56;26.65;;;16.20;;
57217;SDS011;43078;52.972;6.482;2023-03-03T01:13:29;25.75;;;16.25;;
57217;SDS011;43078;52.972;6.482;2023-03-03T01:15:57;27.77;;;16.30;;
57217;SDS011;43078;52.972;6.482;2023-03-03T01:18:23;30.13;;;16.60;;
57217;SDS011;43078;52.972;6.482;2023-03-03T01:20:49;23.95;;;15.68;;
57217;SDS011;43078;52.972;6.482;2023-03-03T01:23:15;26.25;;;15.75;;
57217;SDS011;43078;52.972;6.482;2023-03-03T01:25:40;26.27;;;15.25;;
57217;SDS011;43078;52.972;6.482;2023-03-03T01:28:06;23.85;;;15.27;;
57217;SDS011;43078;52.972;6.482;2023-03-03T01:30:32;24.73;;;15.32;;
57217;SDS011;43078;52.972;6.482;2023-03-03T01:32:58;26.33;;;15.20;;
57217;SDS011;43078;52.972;6.482;2023-03-03T01:35:24;29.13;;;16.77;;
57217;SDS011;43078;52.972;6.482;2023-03-03T01:37:50;30.10;;;16.77;;
57217;SDS011;43078;52.972;6.482;2023-03-03T01:40:20;25.77;;;16.15;;
57217;SDS011;43078;52.972;6.482;2023-03-03T01:42:49;25.30;;;15.52;;
57217;SDS011;43078;52.972;6.482;2023-03-03T01:45:21;25.73;;;15.70;;
57217;SDS011;43078;52.972;6.482;2023-03-03T01:53:19;27.15;;;15.32;;
57217;SDS011;43078;52.972;6.482;2023-03-03T01:55:49;27.50;;;15.57;;
57217;SDS011;43078;52.972;6.482;2023-03-03T01:58:17;26.60;;;14.88;;
57217;SDS011;43078;52.972;6.482;2023-03-03T02:00:45;23.25;;;14.35;;
57217;SDS011;43078;52.972;6.482;2023-03-03T02:03:15;27.52;;;16.00;;
57217;SDS011;43078;52.972;6.482;2023-03-03T02:05:40;26.90;;;15.88;;
57217;SDS011;43078;52.972;6.482;2023-03-03T02:08:07;25.58;;;15.57;;
57217;SDS011;43078;52.972;6.482;2023-03-03T02:10:39;25.90;;;15.88;;
57217;SDS011;43078;52.972;6.482;2023-03-03T02:13:05;24.70;;;15.20;;
57217;SDS011;43078;52.972;6.482;2023-03-03T02:15:33;24.65;;;14.98;;
57217;SDS011;43078;52.972;6.482;2023-03-03T02:18:06;24.27;;;14.82;;
57217;SDS011;43078;52.972;6.482;2023-03-03T02:23:49;27.63;;;13.55;;
57217;SDS011;43078;52.972;6.482;2023-03-03T02:26:18;22.27;;;13.35;;
57217;SDS011;43078;52.972;6.482;2023-03-03T02:28:48;24.52;;;14.48;;
57217;SDS011;43078;52.972;6.482;2023-03-03T02:31:15;23.48;;;12.77;;
57217;SDS011;43078;52.972;6.482;2023-03-03T02:33:43;25.05;;;14.68;;
57217;SDS011;43078;52.972;6.482;2023-03-03T02:36:15;25.42;;;15.07;;
57217;SDS011;43078;52.972;6.482;2023-03-03T02:44:24;21.67;;;13.40;;
57217;SDS011;43078;52.972;6.482;2023-03-03T02:46:52;22.33;;;13.85;;
57217;SDS011;43078;52.972;6.482;2023-03-03T02:49:20;21.85;;;13.57;;
57217;SDS011;43078;52.972;6.482;2023-03-03T02:51:47;19.90;;;12.70;;
57217;SDS011;43078;52.972;6.482;2023-03-03T02:54:14;22.05;;;13.07;;
57217;SDS011;43078;52.972;6.482;2023-03-03T02:56:41;22.23;;;13.55;;
57217;SDS011;43078;52.972;6.482;2023-03-03T02:59:07;22.50;;;12.02;;
57217;SDS011;43078;52.972;6.482;2023-03-03T03:01:33;20.30;;;12.25;;
57217;SDS011;43078;52.972;6.482;2023-03-03T03:04:23;20.27;;;12.35;;
57217;SDS011;43078;52.972;6.482;2023-03-03T03:06:49;20.15;;;11.23;;
57217;SDS011;43078;52.972;6.482;2023-03-03T03:09:16;19.02;;;11.45;;
57217;SDS011;43078;52.972;6.482;2023-03-03T03:11:42;19.95;;;11.55;;
57217;SDS011;43078;52.972;6.482;2023-03-03T03:14:12;18.98;;;11.93;;
57217;SDS011;43078;52.972;6.482;2023-03-03T03:16:38;20.20;;;11.98;;
57217;SDS011;43078;52.972;6.482;2023-03-03T03:19:04;19.55;;;12.40;;
57217;SDS011;43078;52.972;6.482;2023-03-03T03:21:31;20.40;;;11.18;;
57217;SDS011;43078;52.972;6.482;2023-03-03T03:23:57;19.20;;;11.05;;
57217;SDS011;43078;52.972;6.482;2023-03-03T03:26:23;17.90;;;10.77;;
57217;SDS011;43078;52.972;6.482;2023-03-03T03:28:49;18.10;;;10.57;;
57217;SDS011;43078;52.972;6.482;2023-03-03T03:31:16;18.25;;;10.70;;
57217;SDS011;43078;52.972;6.482;2023-03-03T03:33:42;38.55;;;10.88;;
57217;SDS011;43078;52.972;6.482;2023-03-03T03:36:08;20.10;;;10.20;;
57217;SDS011;43078;52.972;6.482;2023-03-03T03:38:35;20.23;;;9.98;;
57217;SDS011;43078;52.972;6.482;2023-03-03T03:41:02;18.02;;;10.93;;
57217;SDS011;43078;52.972;6.482;2023-03-03T03:43:28;17.80;;;10.48;;
57217;SDS011;43078;52.972;6.482;2023-03-03T03:45:54;17.42;;;10.15;;
57217;SDS011;43078;52.972;6.482;2023-03-03T03:48:20;14.95;;;9.23;;
57217;SDS011;43078;52.972;6.482;2023-03-03T03:50:46;16.42;;;9.73;;
57217;SDS011;43078;52.972;6.482;2023-03-03T03:53:13;16.00;;;10.25;;
57217;SDS011;43078;52.972;6.482;2023-03-03T03:55:38;16.05;;;9.60;;
57217;SDS011;43078;52.972;6.482;2023-03-03T03:58:04;16.25;;;9.40;;
57217;SDS011;43078;52.972;6.482;2023-03-03T04:00:30;17.83;;;9.85;;
57217;SDS011;43078;52.972;6.482;2023-03-03T04:02:55;16.90;;;9.85;;
57217;SDS011;43078;52.972;6.482;2023-03-03T04:05:21;15.13;;;9.45;;
57217;SDS011;43078;52.972;6.482;2023-03-03T04:07:47;26.63;;;8.93;;
57217;SDS011;43078;52.972;6.482;2023-03-03T04:10:13;15.57;;;9.63;;
57217;SDS011;43078;52.972;6.482;2023-03-03T04:12:38;16.30;;;9.73;;
57217;SDS011;43078;52.972;6.482;2023-03-03T04:15:08;35.72;;;6.70;;
57217;SDS011;43078;52.972;6.482;2023-03-03T04:17:35;13.70;;;8.90;;
57217;SDS011;43078;52.972;6.482;2023-03-03T04:20:01;27.02;;;6.50;;
57217;SDS011;43078;52.972;6.482;2023-03-03T04:22:28;12.98;;;8.32;;
57217;SDS011;43078;52.972;6.482;2023-03-03T04:24:58;13.30;;;8.40;;
57217;SDS011;43078;52.972;6.482;2023-03-03T04:27:24;14.43;;;8.85;;
57217;SDS011;43078;52.972;6.482;2023-03-03T04:29:50;11.80;;;7.80;;
57217;SDS011;43078;52.972;6.482;2023-03-03T04:32:16;11.90;;;7.85;;
57217;SDS011;43078;52.972;6.482;2023-03-03T04:34:42;12.30;;;7.57;;
57217;SDS011;43078;52.972;6.482;2023-03-03T04:37:08;11.93;;;7.53;;
57217;SDS011;43078;52.972;6.482;2023-03-03T04:39:34;11.90;;;7.75;;
57217;SDS011;43078;52.972;6.482;2023-03-03T04:41:59;13.10;;;7.32;;
57217;SDS011;43078;52.972;6.482;2023-03-03T04:44:25;11.60;;;6.95;;
57217;SDS011;43078;52.972;6.482;2023-03-03T04:46:51;13.55;;;7.45;;
57217;SDS011;43078;52.972;6.482;2023-03-03T04:49:16;10.88;;;6.97;;
57217;SDS011;43078;52.972;6.482;2023-03-03T04:51:42;11.18;;;7.28;;
57217;SDS011;43078;52.972;6.482;2023-03-03T04:54:07;10.43;;;6.43;;
57217;SDS011;43078;52.972;6.482;2023-03-03T04:56:33;10.98;;;6.93;;
57217;SDS011;43078;52.972;6.482;2023-03-03T04:58:59;10.13;;;6.68;;
57217;SDS011;43078;52.972;6.482;2023-03-03T05:01:24;9.93;;;6.45;;
57217;SDS011;43078;52.972;6.482;2023-03-03T05:03:50;9.27;;;6.47;;
57217;SDS011;43078;52.972;6.482;2023-03-03T05:06:16;9.40;;;6.38;;
57217;SDS011;43078;52.972;6.482;2023-03-03T05:08:43;9.73;;;6.18;;
57217;SDS011;43078;52.972;6.482;2023-03-03T05:11:09;10.10;;;6.70;;
57217;SDS011;43078;52.972;6.482;2023-03-03T05:13:35;9.23;;;5.97;;
57217;SDS011;43078;52.972;6.482;2023-03-03T05:16:01;9.88;;;5.07;;
57217;SDS011;43078;52.972;6.482;2023-03-03T05:18:26;9.73;;;5.72;;
57217;SDS011;43078;52.972;6.482;2023-03-03T05:20:52;9.27;;;5.93;;
57217;SDS011;43078;52.972;6.482;2023-03-03T05:23:19;10.60;;;6.00;;
57217;SDS011;43078;52.972;6.482;2023-03-03T05:25:48;8.32;;;5.70;;
57217;SDS011;43078;52.972;6.482;2023-03-03T05:28:15;9.00;;;5.82;;
57217;SDS011;43078;52.972;6.482;2023-03-03T05:30:41;7.50;;;5.13;;
57217;SDS011;43078;52.972;6.482;2023-03-03T05:33:06;8.73;;;5.60;;
57217;SDS011;43078;52.972;6.482;2023-03-03T05:35:32;7.72;;;4.90;;
57217;SDS011;43078;52.972;6.482;2023-03-03T05:37:58;7.47;;;5.10;;
57217;SDS011;43078;52.972;6.482;2023-03-03T05:40:25;7.57;;;4.93;;
57217;SDS011;43078;52.972;6.482;2023-03-03T05:42:51;7.45;;;4.88;;
57217;SDS011;43078;52.972;6.482;2023-03-03T05:45:17;7.45;;;5.15;;
57217;SDS011;43078;52.972;6.482;2023-03-03T05:47:48;8.20;;;4.85;;
57217;SDS011;43078;52.972;6.482;2023-03-03T05:50:15;6.95;;;4.72;;
57217;SDS011;43078;52.972;6.482;2023-03-03T05:52:41;6.78;;;4.43;;
57217;SDS011;43078;52.972;6.482;2023-03-03T05:55:07;6.90;;;4.80;;
57217;SDS011;43078;52.972;6.482;2023-03-03T05:57:33;7.15;;;4.65;;
57217;SDS011;43078;52.972;6.482;2023-03-03T06:00:00;7.28;;;4.35;;
57217;SDS011;43078;52.972;6.482;2023-03-03T06:02:26;6.25;;;4.22;;
57217;SDS011;43078;52.972;6.482;2023-03-03T06:04:51;6.47;;;3.97;;
57217;SDS011;43078;52.972;6.482;2023-03-03T06:07:17;6.78;;;4.60;;
57217;SDS011;43078;52.972;6.482;2023-03-03T06:09:42;7.38;;;5.07;;
57217;SDS011;43078;52.972;6.482;2023-03-03T06:12:08;7.60;;;4.32;;
57217;SDS011;43078;52.972;6.482;2023-03-03T06:14:34;6.50;;;4.13;;
57217;SDS011;43078;52.972;6.482;2023-03-03T06:16:59;6.13;;;4.00;;
57217;SDS011;43078;52.972;6.482;2023-03-03T06:19:25;6.43;;;4.15;;
57217;SDS011;43078;52.972;6.482;2023-03-03T06:21:51;6.00;;;3.90;;
57217;SDS011;43078;52.972;6.482;2023-03-03T06:24:17;6.80;;;3.80;;
57217;SDS011;43078;52.972;6.482;2023-03-03T06:26:43;5.78;;;3.65;;
57217;SDS011;43078;52.972;6.482;2023-03-03T06:29:08;6.35;;;3.88;;
57217;SDS011;43078;52.972;6.482;2023-03-03T06:31:34;5.78;;;3.80;;
57217;SDS011;43078;52.972;6.482;2023-03-03T06:34:00;5.22;;;3.38;;
57217;SDS011;43078;52.972;6.482;2023-03-03T06:36:26;6.63;;;3.90;;
57217;SDS011;43078;52.972;6.482;2023-03-03T06:38:52;5.85;;;3.80;;
57217;SDS011;43078;52.972;6.482;2023-03-03T06:41:18;5.45;;;3.55;;
57217;SDS011;43078;52.972;6.482;2023-03-03T06:43:43;5.47;;;3.60;;
57217;SDS011;43078;52.972;6.482;2023-03-03T06:46:09;6.50;;;3.42;;
57217;SDS011;43078;52.972;6.482;2023-03-03T06:48:35;4.70;;;3.03;;
57217;SDS011;43078;52.972;6.482;2023-03-03T06:51:02;6.00;;;3.40;;
57217;SDS011;43078;52.972;6.482;2023-03-03T06:53:43;4.65;;;2.92;;
57217;SDS011;43078;52.972;6.482;2023-03-03T06:56:09;5.07;;;3.10;;
57217;SDS011;43078;52.972;6.482;2023-03-03T06:58:35;4.93;;;3.25;;
57217;SDS011;43078;52.972;6.482;2023-03-03T07:01:00;4.82;;;3.30;;
57217;SDS011;43078;52.972;6.482;2023-03-03T07:03:35;6.47;;;3.28;;
57217;SDS011;43078;52.972;6.482;2023-03-03T07:06:01;6.07;;;3.33;;
57217;SDS011;43078;52.972;6.482;2023-03-03T07:08:30;6.28;;;2.85;;
57217;SDS011;43078;52.972;6.482;2023-03-03T07:10:56;6.05;;;3.60;;
57217;SDS011;43078;52.972;6.482;2023-03-03T07:13:30;5.40;;;3.53;;
57217;SDS011;43078;52.972;6.482;2023-03-03T07:15:58;7.55;;;3.30;;
57217;SDS011;43078;52.972;6.482;2023-03-03T07:18:39;5.65;;;3.00;;
57217;SDS011;43078;52.972;6.482;2023-03-03T07:21:07;6.50;;;3.30;;
57217;SDS011;43078;52.972;6.482;2023-03-03T07:23:41;6.55;;;3.28;;
57217;SDS011;43078;52.972;6.482;2023-03-03T07:26:10;5.00;;;3.20;;
57217;SDS011;43078;52.972;6.482;2023-03-03T07:28:41;5.75;;;3.20;;
57217;SDS011;43078;52.972;6.482;2023-03-03T07:34:15;5.72;;;2.85;;
57217;SDS011;43078;52.972;6.482;2023-03-03T07:36:54;5.15;;;3.10;;
57217;SDS011;43078;52.972;6.482;2023-03-03T07:39:39;5.20;;;2.90;;
57217;SDS011;43078;52.972;6.482;2023-03-03T07:44:52;5.35;;;3.33;;
57217;SDS011;43078;52.972;6.482;2023-03-03T07:47:27;5.68;;;3.75;;
57217;SDS011;43078;52.972;6.482;2023-03-03T07:50:17;6.13;;;3.20;;
57217;SDS011;43078;52.972;6.482;2023-03-03T07:53:04;6.43;;;3.50;;
57217;SDS011;43078;52.972;6.482;2023-03-03T07:55:37;4.72;;;2.90;;
57217;SDS011;43078;52.972;6.482;2023-03-03T08:03:27;5.82;;;3.60;;
57217;SDS011;43078;52.972;6.482;2023-03-03T08:05:52;5.18;;;3.28;;
57217;SDS011;43078;52.972;6.482;2023-03-03T08:08:33;5.07;;;3.30;;
57217;SDS011;43078;52.972;6.482;2023-03-03T08:11:01;6.63;;;3.65;;
57217;SDS011;43078;52.972;6.482;2023-03-03T08:18:39;5.40;;;3.28;;
57217;SDS011;43078;52.972;6.482;2023-03-03T08:21:18;5.70;;;3.25;;
57217;SDS011;43078;52.972;6.482;2023-03-03T08:23:45;4.50;;;2.75;;
57217;SDS011;43078;52.972;6.482;2023-03-03T08:26:13;5.40;;;3.10;;
57217;SDS011;43078;52.972;6.482;2023-03-03T08:28:39;4.63;;;2.90;;
57217;SDS011;43078;52.972;6.482;2023-03-03T08:31:04;7.25;;;3.92;;
57217;SDS011;43078;52.972;6.482;2023-03-03T08:33:30;5.78;;;3.45;;
57217;SDS011;43078;52.972;6.482;2023-03-03T08:35:56;5.32;;;3.17;;
57217;SDS011;43078;52.972;6.482;2023-03-03T08:38:22;4.40;;;2.88;;
57217;SDS011;43078;52.972;6.482;2023-03-03T08:40:48;5.10;;;3.13;;
57217;SDS011;43078;52.972;6.482;2023-03-03T08:43:14;5.07;;;3.17;;
57217;SDS011;43078;52.972;6.482;2023-03-03T08:45:49;5.68;;;3.40;;
57217;SDS011;43078;52.972;6.482;2023-03-03T08:48:15;4.93;;;3.13;;
57217;SDS011;43078;52.972;6.482;2023-03-03T08:50:42;5.05;;;3.00;;
57217;SDS011;43078;52.972;6.482;2023-03-03T08:53:08;6.07;;;2.88;;
57217;SDS011;43078;52.972;6.482;2023-03-03T08:55:35;5.32;;;3.30;;
57217;SDS011;43078;52.972;6.482;2023-03-03T08:58:01;5.68;;;2.90;;
57217;SDS011;43078;52.972;6.482;2023-03-03T09:00:26;5.20;;;2.92;;
57217;SDS011;43078;52.972;6.482;2023-03-03T09:02:52;5.57;;;3.00;;
57217;SDS011;43078;52.972;6.482;2023-03-03T09:05:18;5.20;;;3.35;;
57217;SDS011;43078;52.972;6.482;2023-03-03T09:07:45;5.70;;;3.50;;
57217;SDS011;43078;52.972;6.482;2023-03-03T09:10:12;4.80;;;3.20;;
57217;SDS011;43078;52.972;6.482;2023-03-03T09:12:41;5.88;;;3.03;;
57217;SDS011;43078;52.972;6.482;2023-03-03T09:15:13;4.28;;;2.55;;
57217;SDS011;43078;52.972;6.482;2023-03-03T09:17:44;4.90;;;2.88;;
57217;SDS011;43078;52.972;6.482;2023-03-03T09:23:46;4.82;;;2.90;;
57217;SDS011;43078;52.972;6.482;2023-03-03T09:28:55;5.38;;;3.05;;
57217;SDS011;43078;52.972;6.482;2023-03-03T09:36:49;4.88;;;2.55;;
57217;SDS011;43078;52.972;6.482;2023-03-03T09:39:17;6.32;;;3.13;;
57217;SDS011;43078;52.972;6.482;2023-03-03T10:12:23;8.48;;;3.53;;
57217;SDS011;43078;52.972;6.482;2023-03-03T10:15:02;5.07;;;3.30;;
57217;SDS011;43078;52.972;6.482;2023-03-03T10:17:41;6.55;;;3.17;;
57217;SDS011;43078;52.972;6.482;2023-03-03T10:20:29;9.80;;;3.60;;
57217;SDS011;43078;52.972;6.482;2023-03-03T10:26:27;5.97;;;3.15;;
57217;SDS011;43078;52.972;6.482;2023-03-03T10:37:23;6.68;;;3.10;;
57217;SDS011;43078;52.972;6.482;2023-03-03T10:48:37;7.85;;;3.55;;
57217;SDS011;43078;52.972;6.482;2023-03-03T10:51:19;8.43;;;3.50;;
57217;SDS011;43078;52.972;6.482;2023-03-03T10:54:20;8.00;;;3.35;;
57217;SDS011;43078;52.972;6.482;2023-03-03T10:57:29;9.20;;;3.50;;
57217;SDS011;43078;52.972;6.482;2023-03-03T11:00:20;5.65;;;3.13;;
57217;SDS011;43078;52.972;6.482;2023-03-03T11:05:23;9.90;;;3.20;;
57217;SDS011;43078;52.972;6.482;2023-03-03T11:08:01;8.10;;;2.72;;
57217;SDS011;43078;52.972;6.482;2023-03-03T11:16:29;5.70;;;2.35;;
57217;SDS011;43078;52.972;6.482;2023-03-03T11:19:04;7.53;;;2.70;;
57217;SDS011;43078;52.972;6.482;2023-03-03T11:21:46;8.65;;;2.60;;
57217;SDS011;43078;52.972;6.482;2023-03-03T11:35:22;6.90;;;1.98;;
57217;SDS011;43078;52.972;6.482;2023-03-03T11:38:05;6.50;;;2.10;;
57217;SDS011;43078;52.972;6.482;2023-03-03T11:43:29;5.63;;;1.73;;
57217;SDS011;43078;52.972;6.482;2023-03-03T11:46:03;5.47;;;1.88;;
57217;SDS011;43078;52.972;6.482;2023-03-03T11:49:08;5.07;;;1.60;;
57217;SDS011;43078;52.972;6.482;2023-03-03T11:54:26;6.13;;;1.35;;
57217;SDS011;43078;52.972;6.482;2023-03-03T11:57:18;3.85;;;1.17;;
57217;SDS011;43078;52.972;6.482;2023-03-03T12:08:04;4.25;;;1.40;;
57217;SDS011;43078;52.972;6.482;2023-03-03T12:19:07;5.72;;;1.33;;
57217;SDS011;43078;52.972;6.482;2023-03-03T12:27:53;5.28;;;1.10;;
57217;SDS011;43078;52.972;6.482;2023-03-03T12:41:46;3.97;;;1.17;;
57217;SDS011;43078;52.972;6.482;2023-03-03T13:01:07;7.40;;;1.90;;
57217;SDS011;43078;52.972;6.482;2023-03-03T13:03:48;7.72;;;1.45;;
57217;SDS011;43078;52.972;6.482;2023-03-03T13:14:42;4.72;;;1.00;;
57217;SDS011;43078;52.972;6.482;2023-03-03T13:17:20;4.63;;;1.02;;
57217;SDS011;43078;52.972;6.482;2023-03-03T13:20:38;8.13;;;1.30;;
57217;SDS011;43078;52.972;6.482;2023-03-03T13:22:50;3.75;;;1.20;;
57217;SDS011;43078;52.972;6.482;2023-03-03T13:31:23;10.55;;;4.22;;
57217;SDS011;43078;52.972;6.482;2023-03-03T13:34:03;7.63;;;2.17;;
57217;SDS011;43078;52.972;6.482;2023-03-03T13:36:52;7.10;;;2.50;;
57217;SDS011;43078;52.972;6.482;2023-03-03T13:39:26;4.07;;;1.45;;
57217;SDS011;43078;52.972;6.482;2023-03-03T13:42:03;4.80;;;1.40;;
57217;SDS011;43078;52.972;6.482;2023-03-03T13:44:48;4.93;;;1.20;;
57217;SDS011;43078;52.972;6.482;2023-03-03T13:47:17;5.65;;;1.33;;
57217;SDS011;43078;52.972;6.482;2023-03-03T13:52:23;6.88;;;1.48;;
57217;SDS011;43078;52.972;6.482;2023-03-03T14:05:48;7.68;;;1.35;;
57217;SDS011;43078;52.972;6.482;2023-03-03T14:11:19;12.32;;;3.53;;
57217;SDS011;43078;52.972;6.482;2023-03-03T14:16:51;8.38;;;1.83;;
57217;SDS011;43078;52.972;6.482;2023-03-03T14:24:53;7.70;;;1.70;;
57217;SDS011;43078;52.972;6.482;2023-03-03T14:27:24;6.90;;;1.50;;
57217;SDS011;43078;52.972;6.482;2023-03-03T14:29:52;12.63;;;2.15;;
57217;SDS011;43078;52.972;6.482;2023-03-03T14:32:24;9.23;;;1.90;;
57217;SDS011;43078;52.972;6.482;2023-03-03T14:34:56;11.20;;;1.77;;
57217;SDS011;43078;52.972;6.482;2023-03-03T14:37:41;14.05;;;2.70;;
57217;SDS011;43078;52.972;6.482;2023-03-03T14:50:52;16.42;;;2.65;;
57217;SDS011;43078;52.972;6.482;2023-03-03T14:59:19;14.93;;;3.20;;
57217;SDS011;43078;52.972;6.482;2023-03-03T15:01:54;21.65;;;5.15;;
57217;SDS011;43078;52.972;6.482;2023-03-03T15:04:27;18.42;;;4.18;;
57217;SDS011;43078;52.972;6.482;2023-03-03T15:06:54;11.73;;;2.75;;
57217;SDS011;43078;52.972;6.482;2023-03-03T15:15:01;15.77;;;2.70;;
57217;SDS011;43078;52.972;6.482;2023-03-03T15:20:29;17.52;;;2.92;;
57217;SDS011;43078;52.972;6.482;2023-03-03T15:25:41;18.45;;;2.80;;
57217;SDS011;43078;52.972;6.482;2023-03-03T15:28:17;18.88;;;3.40;;
57217;SDS011;43078;52.972;6.482;2023-03-03T15:36:39;17.17;;;3.17;;
57217;SDS011;43078;52.972;6.482;2023-03-03T15:42:23;21.00;;;3.92;;
57217;SDS011;43078;52.972;6.482;2023-03-03T15:50:44;28.85;;;4.95;;
57217;SDS011;43078;52.972;6.482;2023-03-03T15:59:18;20.58;;;3.40;;
57217;SDS011;43078;52.972;6.482;2023-03-03T16:01:56;21.80;;;4.05;;
57217;SDS011;43078;52.972;6.482;2023-03-03T16:04:33;20.52;;;4.20;;
57217;SDS011;43078;52.972;6.482;2023-03-03T16:13:04;20.45;;;3.83;;
57217;SDS011;43078;52.972;6.482;2023-03-03T16:23:38;19.58;;;3.67;;
57217;SDS011;43078;52.972;6.482;2023-03-03T16:26:13;21.52;;;4.65;;
57217;SDS011;43078;52.972;6.482;2023-03-03T16:29:15;17.90;;;3.85;;
57217;SDS011;43078;52.972;6.482;2023-03-03T16:37:37;20.40;;;3.35;;
57217;SDS011;43078;52.972;6.482;2023-03-03T16:43:23;22.10;;;3.60;;
57217;SDS011;43078;52.972;6.482;2023-03-03T16:51:51;19.50;;;3.28;;
57217;SDS011;43078;52.972;6.482;2023-03-03T16:54:42;32.10;;;4.70;;
57217;SDS011;43078;52.972;6.482;2023-03-03T17:02:51;21.77;;;3.63;;
57217;SDS011;43078;52.972;6.482;2023-03-03T17:05:54;17.88;;;3.13;;
57217;SDS011;43078;52.972;6.482;2023-03-03T17:33:23;23.08;;;3.40;;
57217;SDS011;43078;52.972;6.482;2023-03-03T17:36:21;19.30;;;3.17;;
57217;SDS011;43078;52.972;6.482;2023-03-03T17:44:45;16.40;;;4.07;;
57217;SDS011;43078;52.972;6.482;2023-03-03T17:47:46;21.08;;;4.00;;
57217;SDS011;43078;52.972;6.482;2023-03-03T17:56:09;21.67;;;3.65;;
57217;SDS011;43078;52.972;6.482;2023-03-03T18:15:09;14.65;;;3.50;;
57217;SDS011;43078;52.972;6.482;2023-03-03T18:17:49;21.02;;;3.63;;
57217;SDS011;43078;52.972;6.482;2023-03-03T18:20:47;20.58;;;3.50;;
57217;SDS011;43078;52.972;6.482;2023-03-03T18:23:34;17.80;;;2.80;;
57217;SDS011;43078;52.972;6.482;2023-03-03T18:31:46;19.92;;;3.90;;
57217;SDS011;43078;52.972;6.482;2023-03-03T18:36:54;19.48;;;3.28;;
57217;SDS011;43078;52.972;6.482;2023-03-03T18:39:44;32.05;;;4.93;;
57217;SDS011;43078;52.972;6.482;2023-03-03T18:44:40;22.80;;;3.38;;
57217;SDS011;43078;52.972;6.482;2023-03-03T18:47:06;18.92;;;3.42;;
57217;SDS011;43078;52.972;6.482;2023-03-03T18:52:24;30.52;;;4.63;;
57217;SDS011;43078;52.972;6.482;2023-03-03T18:57:36;17.55;;;3.40;;
57217;SDS011;43078;52.972;6.482;2023-03-03T19:03:07;20.70;;;3.67;;
57217;SDS011;43078;52.972;6.482;2023-03-03T19:05:49;19.23;;;3.88;;
57217;SDS011;43078;52.972;6.482;2023-03-03T19:08:23;33.25;;;8.82;;
57217;SDS011;43078;52.972;6.482;2023-03-03T19:14:50;23.17;;;4.32;;
57217;SDS011;43078;52.972;6.482;2023-03-03T19:16:53;24.30;;;4.07;;
57217;SDS011;43078;52.972;6.482;2023-03-03T19:19:21;25.45;;;4.45;;
57217;SDS011;43078;52.972;6.482;2023-03-03T19:22:19;15.60;;;3.45;;
57217;SDS011;43078;52.972;6.482;2023-03-03T19:25:27;27.00;;;3.63;;
57217;SDS011;43078;52.972;6.482;2023-03-03T19:35:56;17.67;;;4.00;;
57217;SDS011;43078;52.972;6.482;2023-03-03T19:38:56;23.05;;;3.90;;
57217;SDS011;43078;52.972;6.482;2023-03-03T19:47:35;19.90;;;3.60;;
57217;SDS011;43078;52.972;6.482;2023-03-03T19:52:42;24.00;;;3.83;;
57217;SDS011;43078;52.972;6.482;2023-03-03T19:55:33;25.85;;;3.92;;
57217;SDS011;43078;52.972;6.482;2023-03-03T20:17:43;23.25;;;3.88;;
57217;SDS011;43078;52.972;6.482;2023-03-03T20:23:06;16.42;;;3.10;;
57217;SDS011;43078;52.972;6.482;2023-03-03T20:42:54;20.63;;;3.88;;
57217;SDS011;43078;52.972;6.482;2023-03-03T20:48:11;17.98;;;4.00;;
57217;SDS011;43078;52.972;6.482;2023-03-03T21:04:20;22.00;;;3.38;;
57217;SDS011;43078;52.972;6.482;2023-03-03T21:06:56;26.13;;;3.67;;
57217;SDS011;43078;52.972;6.482;2023-03-03T21:09:32;16.83;;;3.47;;
57217;SDS011;43078;52.972;6.482;2023-03-03T21:12:01;16.40;;;3.28;;
57217;SDS011;43078;52.972;6.482;2023-03-03T21:14:34;22.38;;;4.00;;
57217;SDS011;43078;52.972;6.482;2023-03-03T21:17:09;22.15;;;3.20;;
57217;SDS011;43078;52.972;6.482;2023-03-03T21:19:49;15.63;;;3.40;;
57217;SDS011;43078;52.972;6.482;2023-03-03T21:22:14;17.92;;;3.72;;
57217;SDS011;43078;52.972;6.482;2023-03-03T21:27:30;22.00;;;3.50;;
57217;SDS011;43078;52.972;6.482;2023-03-03T21:30:04;18.38;;;3.38;;
57217;SDS011;43078;52.972;6.482;2023-03-03T21:32:46;24.83;;;3.72;;
57217;SDS011;43078;52.972;6.482;2023-03-03T21:35:17;15.80;;;2.80;;
57217;SDS011;43078;52.972;6.482;2023-03-03T21:37:51;17.52;;;3.10;;
57217;SDS011;43078;52.972;6.482;2023-03-03T21:40:20;16.80;;;2.97;;
57217;SDS011;43078;52.972;6.482;2023-03-03T21:42:50;16.08;;;3.08;;
57217;SDS011;43078;52.972;6.482;2023-03-03T21:45:17;20.73;;;2.90;;
57217;SDS011;43078;52.972;6.482;2023-03-03T21:47:48;17.38;;;2.80;;
57217;SDS011;43078;52.972;6.482;2023-03-03T21:50:15;16.63;;;2.50;;
57217;SDS011;43078;52.972;6.482;2023-03-03T21:52:41;25.33;;;3.28;;
57217;SDS011;43078;52.972;6.482;2023-03-03T21:55:07;16.75;;;2.92;;
57217;SDS011;43078;52.972;6.482;2023-03-03T21:57:33;18.13;;;3.00;;
57217;SDS011;43078;52.972;6.482;2023-03-03T21:59:59;19.88;;;3.15;;
57217;SDS011;43078;52.972;6.482;2023-03-03T22:02:26;21.58;;;3.20;;
57217;SDS011;43078;52.972;6.482;2023-03-03T22:04:51;15.75;;;2.40;;
57217;SDS011;43078;52.972;6.482;2023-03-03T22:07:17;21.17;;;2.90;;
57217;SDS011;43078;52.972;6.482;2023-03-03T22:09:43;17.52;;;2.35;;
57217;SDS011;43078;52.972;6.482;2023-03-03T22:12:08;14.25;;;2.80;;
57217;SDS011;43078;52.972;6.482;2023-03-03T22:14:34;16.25;;;2.20;;
57217;SDS011;43078;52.972;6.482;2023-03-03T22:17:02;19.45;;;2.92;;
57217;SDS011;43078;52.972;6.482;2023-03-03T22:19:28;14.50;;;2.60;;
57217;SDS011;43078;52.972;6.482;2023-03-03T22:21:53;20.35;;;3.10;;
57217;SDS011;43078;52.972;6.482;2023-03-03T22:24:19;14.45;;;2.60;;
57217;SDS011;43078;52.972;6.482;2023-03-03T22:26:45;15.68;;;2.40;;
57217;SDS011;43078;52.972;6.482;2023-03-03T22:29:10;14.35;;;2.33;;
57217;SDS011;43078;52.972;6.482;2023-03-03T22:31:36;20.67;;;3.17;;